Grinnell, Iowa
Current Conditions -  °F | °C
As of 3:55 AM on Tuesday 21 Oct 2014 (Local Time) from KGGI Reporting Station
Clear Clear  
Wind Chill: 41°   Ceiling: Unl
Heat Index: 44°   Visibility: 10mi
Dew Point: 40°   Wind: 5mph
Humidity: 85%   Direction: 60°ENE
Pressure: 30.09"   Gusts: NA
Location:  41.75°N, 92.73°W
Report Text: KGGI 210855Z AUTO 06004KT 10SM CLR 07/04 A3009 RMK AO2 T00660042
Loading
Personal Weather Stations






























Interactive Weather Map
Tropical Storm Tracking
New forecast layout! Learn more

10-Day Weather Forecast

Advertisements
Track Severe Weather on mobile